CheckWX is a tool to help pilots better visualize weather data.  It is not intended as a substitute for an official pre-flight weather briefing.

11:12:32 UTC

KMKL METAR
Mc Kellar-Sipes Regional Airport
Jackson, Tennessee, USA
Current

20 mins ago

KMKL 041053Z AUTO 00000KT 10SM CLR 21/19 A2994 RMK AO2 SLP134 T02110194
Observed
Jul-4 @ 10:53 UTC
Visibility
10 SM
Flight Rules
VFR
Cloud Levels
  • Clear skies
Temperature
21°C / 70°F
Dewpoint
19°C / 66°F
Humidity
88%
Altimeter
29.94" Hg
Pressure
1013.92 hPa
Previous

1 hour ago

KMKL 040953Z AUTO 00000KT 8SM CLR 21/19 A2993 RMK AO2 SLP130 T02110194
Observed
Jul-4 @ 09:53 UTC
Visibility
8 SM
Flight Rules
VFR
Cloud Levels
  • Clear skies
Temperature
21°C / 70°F
Dewpoint
19°C / 66°F
Humidity
88%
Altimeter
29.93" Hg
Pressure
1013.52 hPa
Previous

2 hours ago

KMKL 040853Z AUTO 00000KT 4SM BR CLR 22/20 A2992 RMK AO2 SLP127 T02170200 56008
Observed
Jul-4 @ 08:53 UTC
Visibility
4 SM
Flight Rules
MVFR
Conditions
Mist
Cloud Levels
  • Clear skies
Temperature
22°C / 72°F
Dewpoint
20°C / 68°F
Humidity
88%
Altimeter
29.92" Hg
Pressure
1013.22 hPa